Time;durP1;ratioP1;P1;durP2;ratioP2;P2;SDS_P1;SDS_P2;PMS_P1;PMS_P2;Temp;Humidity;BMP_temperature;BMP_pressure;BME280_temperature;BME280_humidity;BME280_pressure;Samples;Min_cycle;Max_cycle;Signal;HPM_P1;HPM_P2
2022/01/24 00:01:53;;;;;;;0.32;0.32;;;1.20;99.90;;;;;;5012537;28;20026;-87
2022/01/24 00:04:21;;;;;;;0.40;0.20;;;1.30;99.90;;;;;;5010511;28;20026;-86
2022/01/24 00:06:47;;;;;;;0.63;0.63;;;1.30;99.90;;;;;;5012790;28;20022;-75
2022/01/24 00:09:13;;;;;;;0.73;0.73;;;1.30;99.90;;;;;;5012602;28;20026;-75
2022/01/24 00:27:07;;;;;;;0.20;0.20;;;1.10;99.90;;;;;;5015368;28;20033;-87
2022/01/24 00:29:33;;;;;;;0.35;0.35;;;1.10;99.90;;;;;;5002758;28;20030;-86
2022/01/24 00:31:59;;;;;;;0.30;0.30;;;1.20;99.90;;;;;;5010789;28;20452;-86
2022/01/24 00:34:25;;;;;;;0.68;0.68;;;1.20;99.90;;;;;;5014432;28;20404;-75
2022/01/24 00:36:53;;;;;;;0.20;0.20;;;1.20;99.90;;;;;;5015524;28;20014;-75
2022/01/24 00:39:20;;;;;;;0.10;0.10;;;1.30;99.90;;;;;;5015789;28;20030;-86
2022/01/24 00:42:03;;;;;;;0.10;0.10;;;1.30;99.90;;;;;;5016064;28;20053;-87
2022/01/24 00:44:48;;;;;;;0.55;0.55;;;1.30;99.90;;;;;;5006138;28;20058;-87
2022/01/24 00:47:28;;;;;;;0.55;0.55;;;1.30;99.90;;;;;;5012219;28;20045;-87
2022/01/24 00:55:21;;;;;;;0.55;0.55;;;1.20;99.90;;;;;;5014668;28;20088;-87
2022/01/24 00:57:47;;;;;;;0.28;0.28;;;1.20;99.90;;;;;;5012696;28;20049;-87
2022/01/24 01:00:13;;;;;;;0.63;0.40;;;1.20;99.90;;;;;;5012717;28;20029;-86
2022/01/24 01:02:39;;;;;;;0.00;0.00;;;1.20;99.90;;;;;;5016022;28;20018;-87
2022/01/24 01:18:36;;;;;;;0.10;0.10;;;1.00;99.90;;;;;;5015557;28;20961;-86
2022/01/24 01:23:30;;;;;;;0.00;0.00;;;0.90;99.90;;;;;;5014596;28;20548;-87
2022/01/24 01:26:00;;;;;;;0.20;0.20;;;0.90;99.90;;;;;;5012758;28;20030;-87
2022/01/24 01:28:28;;;;;;;0.52;0.52;;;0.90;99.90;;;;;;5009122;28;20052;-87
2022/01/24 01:30:58;;;;;;;0.15;0.15;;;0.90;99.90;;;;;;5015482;28;20033;-86
2022/01/24 01:55:37;;;;;;;0.05;0.05;;;0.70;99.90;;;;;;5013702;28;20036;-87
2022/01/24 01:58:14;;;;;;;0.00;0.00;;;0.70;99.90;;;;;;5013192;28;20049;-75
2022/01/24 02:01:06;;;;;;;0.52;0.52;;;0.70;99.90;;;;;;5012900;28;20026;-86
2022/01/24 02:03:33;;;;;;;0.28;0.28;;;0.70;99.90;;;;;;5008511;28;20044;-86
2022/01/24 02:06:00;;;;;;;0.25;0.25;;;0.60;99.90;;;;;;5015004;28;20105;-87
2022/01/24 02:08:28;;;;;;;0.00;0.00;;;0.70;99.90;;;;;;5001213;28;20034;-87
2022/01/24 02:10:55;;;;;;;0.20;0.20;;;0.70;99.90;;;;;;5012463;28;20045;-87
2022/01/24 02:13:25;;;;;;;0.08;0.08;;;0.70;99.90;;;;;;5013226;28;20093;-75
2022/01/24 02:16:17;;;;;;;0.63;0.63;;;0.70;99.90;;;;;;5015764;28;20044;-86
2022/01/24 02:19:52;;;;;;;0.08;0.08;;;0.70;99.90;;;;;;5014014;28;20049;-87
2022/01/24 02:21:46;;;;;;;0.00;0.00;;;0.70;99.90;;;;;;4999429;28;20053;-75
2022/01/24 02:24:16;;;;;;;0.25;0.25;;;0.70;99.90;;;;;;5014923;28;20034;-87
2022/01/24 02:26:42;;;;;;;1.08;0.90;;;0.70;99.90;;;;;;5005137;28;20097;-75
2022/01/24 02:29:23;;;;;;;0.40;0.20;;;0.70;99.90;;;;;;5003794;28;20060;-75
2022/01/24 02:31:51;;;;;;;0.52;0.45;;;0.70;99.90;;;;;;5012465;28;20022;-87
2022/01/24 02:34:34;;;;;;;0.20;0.20;;;0.70;99.90;;;;;;5013350;28;20397;-86
2022/01/24 02:37:04;;;;;;;;;;;0.70;99.90;;;;;;5012324;28;20017;-87
2022/01/24 02:50:21;;;;;;;0.10;0.10;;;0.90;99.90;;;;;;5013769;28;20453;-86
2022/01/24 02:52:48;;;;;;;0.05;0.05;;;0.90;99.90;;;;;;5012817;28;20061;-86
2022/01/24 02:55:14;;;;;;;0.00;0.00;;;0.90;99.90;;;;;;5012535;28;20033;-87
2022/01/24 02:57:40;;;;;;;0.20;0.20;;;0.90;99.90;;;;;;4999770;28;20046;-87
2022/01/24 03:00:07;;;;;;;0.20;0.20;;;0.90;99.90;;;;;;5012159;28;20492;-87
2022/01/24 03:02:33;;;;;;;0.20;0.20;;;0.90;99.90;;;;;;5011030;28;20068;-86
2022/01/24 03:04:59;;;;;;;0.52;0.52;;;0.90;99.90;;;;;;5011920;28;20054;-87
2022/01/24 03:07:25;;;;;;;0.95;0.95;;;0.90;99.90;;;;;;5011151;28;20026;-87
2022/01/24 03:09:54;;;;;;;0.32;0.32;;;0.80;99.90;;;;;;5012967;28;20026;-87
2022/01/24 03:12:44;;;;;;;0.35;0.35;;;0.80;99.90;;;;;;5000597;28;20106;-75
2022/01/24 03:15:07;;;;;;;0.43;0.43;;;0.80;99.90;;;;;;5001594;28;20041;-87
2022/01/24 03:17:34;;;;;;;1.25;0.57;;;0.80;99.90;;;;;;5013915;28;20093;-87
2022/01/24 03:20:00;;;;;;;0.57;0.55;;;0.80;99.90;;;;;;5013182;28;20026;-76
2022/01/24 03:22:26;;;;;;;3.58;2.70;;;0.80;99.90;;;;;;5013006;28;20091;-87
2022/01/24 03:24:53;;;;;;;0.25;0.25;;;0.80;99.90;;;;;;5012080;28;20061;-87
2022/01/24 03:27:19;;;;;;;0.00;0.00;;;0.80;99.90;;;;;;5004342;28;20037;-87
2022/01/24 03:29:45;;;;;;;2.28;1.02;;;0.80;99.90;;;;;;5006451;28;20492;-87
2022/01/24 03:32:11;;;;;;;0.00;0.00;;;0.80;99.90;;;;;;5011396;28;20038;-87
2022/01/24 03:34:37;;;;;;;4.03;0.32;;;0.70;99.90;;;;;;5013369;28;20401;-88
2022/01/24 03:37:03;;;;;;;0.08;0.08;;;0.70;99.90;;;;;;5011326;28;20033;-87
2022/01/24 03:39:29;;;;;;;1.05;0.70;;;0.70;99.90;;;;;;5011870;28;20026;-76
2022/01/24 03:41:55;;;;;;;1.45;0.80;;;0.70;99.90;;;;;;5012231;28;20033;-87
2022/01/24 03:44:23;;;;;;;0.00;0.00;;;0.80;99.90;;;;;;5012159;28;20133;-75
2022/01/24 03:47:02;;;;;;;2.03;0.80;;;0.80;99.90;;;;;;5009649;28;20088;-87
2022/01/24 03:52:18;;;;;;;0.10;0.10;;;0.90;99.90;;;;;;5015948;28;20409;-86
2022/01/24 03:54:45;;;;;;;0.28;0.28;;;0.90;99.90;;;;;;5015795;28;20029;-75
2022/01/24 03:57:15;;;;;;;0.25;0.25;;;0.80;99.90;;;;;;5015728;28;20046;-75
2022/01/24 03:59:42;;;;;;;0.00;0.00;;;0.80;99.90;;;;;;5016189;28;20022;-87
2022/01/24 04:02:09;;;;;;;0.20;0.20;;;0.70;99.90;;;;;;5017349;28;20080;-87
2022/01/24 04:04:35;;;;;;;0.22;0.22;;;0.70;99.90;;;;;;5015475;28;20022;-75
2022/01/24 04:07:01;;;;;;;1.65;1.15;;;0.70;99.90;;;;;;5016644;28;20041;-87
2022/01/24 04:09:27;;;;;;;0.85;0.57;;;0.70;99.90;;;;;;5016687;28;20026;-75
2022/01/24 04:11:56;;;;;;;0.13;0.13;;;0.90;99.90;;;;;;5009546;28;20045;-87
2022/01/24 04:22:01;;;;;;;5.05;1.75;;;0.80;99.90;;;;;;5016343;28;20105;-87
2022/01/24 04:24:28;;;;;;;0.57;0.57;;;0.80;99.90;;;;;;5014800;28;20117;-87
2022/01/24 04:26:54;;;;;;;1.13;1.13;;;0.80;99.90;;;;;;5014168;28;20033;-86
2022/01/24 04:29:20;;;;;;;1.08;0.82;;;0.90;99.90;;;;;;5009409;28;20408;-87
2022/01/24 04:31:50;;;;;;;0.32;0.32;;;0.90;99.90;;;;;;5015075;28;20066;-87
2022/01/24 04:34:16;;;;;;;0.35;0.35;;;1.00;99.90;;;;;;5014831;28;20048;-87
2022/01/24 04:36:42;;;;;;;0.82;0.75;;;1.00;99.90;;;;;;5014418;28;20030;-87
2022/01/24 04:39:08;;;;;;;1.75;1.65;;;1.00;99.90;;;;;;5014059;28;20465;-87
2022/01/24 04:41:38;;;;;;;0.00;0.00;;;1.10;99.90;;;;;;5015863;28;20092;-75
2022/01/24 04:44:18;;;;;;;0.10;0.10;;;1.10;99.90;;;;;;5014769;28;20032;-87
2022/01/24 04:54:44;;;;;;;0.20;0.20;;;1.10;99.90;;;;;;5012869;28;20026;-86
2022/01/24 04:57:12;;;;;;;2.10;0.85;;;1.10;99.90;;;;;;5005927;28;20038;-87
2022/01/24 04:59:39;;;;;;;0.00;0.00;;;1.10;99.90;;;;;;5011285;28;20060;-78
2022/01/24 05:02:07;;;;;;;5.07;1.13;;;1.10;99.90;;;;;;5004302;28;20026;-86
2022/01/24 05:04:34;;;;;;;0.88;0.85;;;1.00;99.90;;;;;;5015223;28;20084;-87
2022/01/24 05:06:59;;;;;;;0.25;0.25;;;1.00;99.90;;;;;;5010054;28;20026;-86
2022/01/24 05:09:27;;;;;;;0.20;0.20;;;1.00;99.90;;;;;;5009877;28;20113;-87
2022/01/24 05:12:06;;;;;;;0.40;0.22;;;1.00;99.90;;;;;;5013721;28;20034;-87
2022/01/24 05:25:30;;;;;;;0.70;0.70;;;0.90;99.90;;;;;;5014371;28;20110;-75
2022/01/24 05:27:56;;;;;;;1.77;0.52;;;0.90;99.90;;;;;;5013284;28;20061;-87
2022/01/24 05:30:23;;;;;;;0.28;0.28;;;0.90;99.90;;;;;;5013981;28;20025;-87
2022/01/24 05:32:48;;;;;;;0.45;0.45;;;0.90;99.90;;;;;;5015120;28;20540;-87
2022/01/24 05:35:14;;;;;;;0.13;0.13;;;1.00;99.90;;;;;;5013464;28;20126;-87
2022/01/24 05:37:41;;;;;;;0.15;0.15;;;1.00;99.90;;;;;;5015872;28;20116;-87
2022/01/24 05:40:07;;;;;;;0.52;0.52;;;1.00;99.90;;;;;;5004120;28;20053;-88
2022/01/24 05:42:34;;;;;;;3.00;1.65;;;1.00;99.90;;;;;;5013591;28;20018;-87
2022/01/24 05:45:00;;;;;;;0.47;0.47;;;1.00;99.90;;;;;;5014844;28;20484;-87
2022/01/24 05:47:26;;;;;;;0.65;0.60;;;1.00;99.90;;;;;;5013550;28;20041;-87
2022/01/24 05:49:52;;;;;;;1.88;0.70;;;1.00;99.90;;;;;;5013183;28;20026;-88
2022/01/24 05:52:19;;;;;;;0.15;0.15;;;1.00;99.90;;;;;;5002938;28;20428;-76
2022/01/24 05:54:44;;;;;;;0.45;0.45;;;1.00;99.90;;;;;;5014291;28;20056;-86
2022/01/24 05:57:10;;;;;;;0.20;0.20;;;1.00;99.90;;;;;;5014531;28;20038;-75
2022/01/24 05:59:37;;;;;;;0.00;0.00;;;1.00;99.90;;;;;;5010325;28;20034;-86
2022/01/24 06:02:04;;;;;;;0.45;0.45;;;1.00;99.90;;;;;;5012978;28;20033;-76
2022/01/24 06:04:31;;;;;;;0.00;0.00;;;0.90;99.90;;;;;;5012922;28;20117;-87
2022/01/24 06:06:57;;;;;;;2.88;1.70;;;0.90;99.90;;;;;;5011738;28;20436;-86
2022/01/24 06:09:23;;;;;;;0.57;0.57;;;1.00;99.90;;;;;;5012146;28;20037;-86
2022/01/24 06:11:50;;;;;;;2.10;1.08;;;1.00;99.90;;;;;;5012223;28;20045;-76
2022/01/24 06:14:17;;;;;;;3.30;0.50;;;0.90;99.90;;;;;;5010254;28;20045;-77
2022/01/24 06:16:43;;;;;;;0.60;0.60;;;0.90;99.90;;;;;;5014339;28;20068;-87
2022/01/24 06:19:09;;;;;;;0.65;0.32;;;0.90;99.90;;;;;;5013144;28;20444;-76
2022/01/24 06:21:35;;;;;;;0.00;0.00;;;0.80;99.90;;;;;;5005005;28;20022;-76
2022/01/24 06:24:02;;;;;;;0.25;0.25;;;0.80;99.90;;;;;;5007702;28;20448;-75
2022/01/24 06:26:28;;;;;;;0.98;0.43;;;0.80;99.90;;;;;;5014939;28;20028;-87
2022/01/24 06:28:54;;;;;;;0.40;0.40;;;0.70;99.90;;;;;;5022111;28;20034;-87
2022/01/24 06:31:21;;;;;;;0.63;0.63;;;0.70;99.90;;;;;;5012475;28;20034;-87
2022/01/24 06:33:48;;;;;;;0.25;0.25;;;0.70;99.90;;;;;;5007737;28;20026;-76
2022/01/24 06:36:15;;;;;;;0.10;0.10;;;0.70;99.90;;;;;;5008630;28;20022;-76
2022/01/24 06:38:41;;;;;;;0.98;0.52;;;0.70;99.90;;;;;;5010639;28;20030;-83
2022/01/24 06:41:06;;;;;;;0.32;0.32;;;0.60;99.90;;;;;;5012225;28;20034;-81
2022/01/24 06:43:32;;;;;;;0.15;0.15;;;0.70;99.90;;;;;;5012950;28;20068;-76
2022/01/24 06:46:01;;;;;;;0.20;0.20;;;0.60;99.90;;;;;;5012577;28;20022;-85
2022/01/24 06:48:27;;;;;;;0.10;0.10;;;0.70;99.90;;;;;;5010594;28;20026;-85
2022/01/24 06:50:53;;;;;;;0.70;0.68;;;0.70;99.90;;;;;;5003679;28;20376;-87
2022/01/24 06:53:19;;;;;;;1.02;0.35;;;0.60;99.90;;;;;;5005791;28;20493;-76
2022/01/24 06:55:45;;;;;;;0.38;0.38;;;0.60;99.90;;;;;;5016289;28;20018;-87
2022/01/24 06:58:11;;;;;;;0.10;0.10;;;0.60;99.90;;;;;;5009551;28;20054;-87
2022/01/24 07:00:37;;;;;;;1.80;0.85;;;0.60;99.90;;;;;;5011536;28;20029;-87
2022/01/24 07:03:03;;;;;;;0.10;0.10;;;0.50;99.90;;;;;;5012693;28;20033;-87
2022/01/24 07:05:30;;;;;;;1.95;1.20;;;0.50;99.90;;;;;;5008646;28;20034;-87
2022/01/24 07:07:57;;;;;;;0.08;0.08;;;0.40;99.90;;;;;;5001864;28;20436;-87
2022/01/24 07:10:27;;;;;;;0.28;0.28;;;0.40;99.90;;;;;;5012552;28;20484;-76
2022/01/24 07:12:56;;;;;;;0.52;0.52;;;0.40;99.90;;;;;;5010343;28;20048;-85
2022/01/24 07:15:30;;;;;;;0.17;0.17;;;0.40;99.90;;;;;;5009331;28;20034;-86
2022/01/24 07:18:12;;;;;;;0.47;0.47;;;0.40;99.90;;;;;;5006154;28;20117;-76
2022/01/24 07:20:38;;;;;;;0.82;0.70;;;0.50;99.90;;;;;;5002064;28;20036;-75
2022/01/24 07:23:04;;;;;;;0.17;0.17;;;0.40;99.90;;;;;;4999935;28;20439;-86
2022/01/24 07:25:30;;;;;;;0.03;0.03;;;0.30;99.90;;;;;;5005592;28;20083;-86
2022/01/24 07:27:55;;;;;;;0.05;0.05;;;0.30;99.90;;;;;;5011716;28;20451;-86
2022/01/24 07:30:21;;;;;;;0.40;0.40;;;0.30;99.90;;;;;;5015397;28;20378;-84
2022/01/24 07:32:47;;;;;;;0.08;0.08;;;0.30;99.90;;;;;;5008722;28;20530;-87
2022/01/24 07:35:13;;;;;;;0.00;0.00;;;0.30;99.90;;;;;;5009029;28;20030;-82
2022/01/24 07:37:38;;;;;;;0.00;0.00;;;0.30;99.90;;;;;;5023223;28;20406;-85
2022/01/24 07:40:07;;;;;;;0.20;0.20;;;0.30;99.90;;;;;;5008235;28;20018;-84
2022/01/24 07:45:18;;;;;;;0.13;0.13;;;0.20;99.90;;;;;;5009011;28;20815;-85
2022/01/24 07:47:46;;;;;;;0.65;0.65;;;0.10;99.90;;;;;;5006738;28;20042;-86
2022/01/24 07:50:13;;;;;;;0.10;0.10;;;0.10;99.90;;;;;;5012672;28;20042;-80
2022/01/24 07:52:39;;;;;;;0.10;0.10;;;0.10;99.90;;;;;;5009112;28;20508;-87
2022/01/24 07:55:05;;;;;;;0.00;0.00;;;0.20;99.90;;;;;;5012985;28;20018;-87
2022/01/24 07:57:31;;;;;;;0.45;0.45;;;0.10;99.90;;;;;;5015043;28;20050;-76
2022/01/24 07:59:56;;;;;;;2.00;1.17;;;0.10;99.90;;;;;;5013780;28;20033;-77
2022/01/24 08:02:22;;;;;;;0.30;0.30;;;0.10;99.90;;;;;;5011794;28;20454;-90
2022/01/24 08:04:47;;;;;;;1.17;1.00;;;0.10;99.90;;;;;;5012913;28;20022;-79
2022/01/24 08:07:13;;;;;;;0.15;0.15;;;0.10;99.90;;;;;;5010438;28;20026;-80
2022/01/24 08:09:39;;;;;;;0.47;0.47;;;0.00;99.90;;;;;;5013097;28;20030;-88
2022/01/24 08:12:05;;;;;;;0.00;0.00;;;0.10;99.90;;;;;;5005129;28;20053;-87
2022/01/24 08:14:31;;;;;;;0.55;0.55;;;0.10;99.90;;;;;;5001922;28;20050;-79
2022/01/24 08:16:57;;;;;;;0.47;0.47;;;0.10;99.90;;;;;;5004265;28;20528;-78
2022/01/24 08:19:22;;;;;;;0.63;0.55;;;0.20;99.90;;;;;;5007486;28;20551;-86
2022/01/24 08:21:48;;;;;;;0.90;0.90;;;0.30;99.90;;;;;;5005481;28;20050;-80
2022/01/24 08:24:15;;;;;;;1.55;0.75;;;0.30;99.90;;;;;;5009555;28;20573;-88
2022/01/24 08:26:40;;;;;;;0.00;0.00;;;0.20;99.90;;;;;;5010192;28;20047;-86
2022/01/24 08:29:06;;;;;;;0.03;0.03;;;0.30;99.90;;;;;;5007760;28;20562;-85
2022/01/24 08:31:32;;;;;;;0.73;0.32;;;0.40;99.90;;;;;;5003873;28;20030;-84
2022/01/24 08:33:58;;;;;;;1.85;0.45;;;0.50;99.90;;;;;;5011267;28;20033;-79
2022/01/24 08:36:23;;;;;;;0.95;0.70;;;0.50;99.90;;;;;;5011531;28;20606;-84
2022/01/24 08:38:51;;;;;;;0.20;0.20;;;0.50;99.90;;;;;;5010373;28;20057;-85
2022/01/24 08:41:26;;;;;;;0.13;0.13;;;0.60;99.90;;;;;;5011582;28;20121;-77
2022/01/24 08:44:11;;;;;;;0.55;0.45;;;0.60;99.90;;;;;;5011803;28;20533;-78
2022/01/24 08:46:36;;;;;;;0.32;0.32;;;0.60;99.90;;;;;;5006176;28;20052;-78
2022/01/24 08:49:02;;;;;;;1.13;0.75;;;0.90;99.90;;;;;;5008820;28;20033;-86
2022/01/24 08:51:28;;;;;;;0.63;0.63;;;0.80;99.90;;;;;;5000992;28;20117;-84
2022/01/24 08:53:53;;;;;;;0.10;0.10;;;0.80;99.90;;;;;;5002145;28;20061;-84
2022/01/24 08:56:19;;;;;;;1.88;0.68;;;0.90;99.90;;;;;;5012145;28;20473;-85
2022/01/24 08:58:45;;;;;;;2.55;0.95;;;1.00;99.90;;;;;;5011453;28;20381;-85
2022/01/24 09:01:10;;;;;;;0.08;0.08;;;1.00;99.90;;;;;;5006167;28;20076;-77
2022/01/24 09:03:39;;;;;;;0.20;0.20;;;1.10;99.90;;;;;;5001524;28;20413;-81
2022/01/24 09:06:07;;;;;;;0.47;0.43;;;1.20;99.90;;;;;;4999786;28;20022;-74
2022/01/24 09:08:34;;;;;;;0.13;0.13;;;1.40;99.90;;;;;;5012602;28;20061;-77
2022/01/24 09:11:00;;;;;;;1.38;1.30;;;1.50;99.90;;;;;;5010161;28;20584;-80
2022/01/24 09:13:25;;;;;;;5.22;1.10;;;1.60;99.90;;;;;;5009944;28;20121;-77
2022/01/24 09:15:51;;;;;;;1.55;0.57;;;1.70;99.90;;;;;;5012109;28;20374;-81
2022/01/24 09:18:19;;;;;;;0.35;0.35;;;1.60;99.90;;;;;;5009973;28;20026;-78
2022/01/24 09:20:45;;;;;;;0.57;0.57;;;1.50;99.90;;;;;;4998105;28;20485;-80
2022/01/24 09:23:10;;;;;;;0.52;0.52;;;1.60;99.90;;;;;;5013604;28;20014;-77
2022/01/24 09:25:37;;;;;;;0.75;0.68;;;1.60;99.90;;;;;;5000737;28;20038;-78
2022/01/24 09:28:06;;;;;;;0.40;0.40;;;1.60;99.90;;;;;;5003829;28;20033;-78
2022/01/24 09:30:32;;;;;;;0.63;0.63;;;1.60;99.90;;;;;;5001615;28;20034;-79
2022/01/24 09:32:57;;;;;;;0.22;0.22;;;1.70;99.90;;;;;;5012005;28;20466;-78
2022/01/24 09:35:26;;;;;;;0.10;0.10;;;1.80;99.90;;;;;;5009838;28;20052;-83
2022/01/24 09:37:52;;;;;;;1.23;1.13;;;1.90;99.90;;;;;;5007436;28;20014;-79
2022/01/24 09:40:19;;;;;;;0.35;0.35;;;2.00;99.90;;;;;;5006989;28;20029;-79
2022/01/24 09:42:45;;;;;;;0.30;0.30;;;2.00;99.90;;;;;;5012895;28;20092;-85
2022/01/24 09:45:17;;;;;;;0.80;0.65;;;2.10;99.90;;;;;;5012824;28;20435;-80
2022/01/24 09:47:46;;;;;;;1.48;0.93;;;2.30;99.90;;;;;;5005809;28;20053;-80
2022/01/24 09:50:14;;;;;;;1.63;0.98;;;2.40;99.90;;;;;;5012173;28;20421;-83
2022/01/24 09:52:46;;;;;;;0.13;0.13;;;2.50;99.90;;;;;;5007669;28;20470;-83
2022/01/24 09:55:15;;;;;;;0.77;0.43;;;2.60;99.90;;;;;;5006794;28;20033;-89
2022/01/24 09:57:42;;;;;;;2.08;0.73;;;2.70;99.90;;;;;;5006489;28;20072;-81
2022/01/24 10:00:12;;;;;;;0.52;0.52;;;2.80;99.90;;;;;;5011185;28;20056;-80
2022/01/24 10:02:39;;;;;;;0.28;0.28;;;2.90;99.90;;;;;;5006961;28;20473;-80
2022/01/24 10:05:18;;;;;;;0.47;0.47;;;2.90;99.90;;;;;;5011098;28;20026;-86
2022/01/24 10:07:58;;;;;;;5.85;0.90;;;3.10;99.90;;;;;;5009493;28;20041;-87
2022/01/24 10:10:47;;;;;;;1.38;0.98;;;3.10;99.90;;;;;;5029306;28;20444;-79
2022/01/24 10:16:29;;;;;;;0.68;0.68;;;3.30;99.90;;;;;;5005564;28;20112;-81
2022/01/24 10:19:16;;;;;;;0.90;0.90;;;3.50;99.90;;;;;;5012448;28;20080;-85
2022/01/24 10:21:48;;;;;;;1.55;1.17;;;3.60;99.90;;;;;;5002000;28;20054;-85
2022/01/24 10:24:31;;;;;;;6.13;0.32;;;3.70;99.90;;;;;;5011402;28;20026;-81
2022/01/24 10:27:15;;;;;;;4.38;2.30;;;3.90;99.90;;;;;;5004309;28;20049;-79
2022/01/24 10:30:08;;;;;;;0.63;0.63;;;4.00;99.90;;;;;;5032923;28;20037;-81
2022/01/24 10:32:41;;;;;;;0.28;0.28;;;4.10;99.90;;;;;;5006641;28;20026;-81
2022/01/24 10:35:23;;;;;;;3.22;1.67;;;4.20;99.90;;;;;;5006051;28;20039;-80
2022/01/24 10:38:18;;;;;;;0.15;0.15;;;4.40;99.90;;;;;;5006317;28;20050;-85
2022/01/24 10:40:49;;;;;;;1.05;1.02;;;4.50;99.90;;;;;;5013167;28;20022;-86
2022/01/24 10:43:20;;;;;;;0.98;0.93;;;4.50;99.90;;;;;;5007185;28;20545;-85
2022/01/24 10:45:47;;;;;;;0.32;0.32;;;4.60;99.90;;;;;;5008750;28;20022;-85
2022/01/24 10:48:13;;;;;;;1.00;0.82;;;4.70;99.90;;;;;;5011465;28;20370;-86
2022/01/24 10:50:39;;;;;;;1.35;1.27;;;4.90;99.90;;;;;;5015202;28;20037;-81
2022/01/24 10:53:13;;;;;;;0.30;0.30;;;5.10;99.90;;;;;;5001314;28;20477;-86
2022/01/24 10:55:43;;;;;;;5.10;1.88;;;5.30;99.90;;;;;;5001426;28;20029;-77
2022/01/24 10:58:18;;;;;;;2.85;2.17;;;5.30;99.90;;;;;;5012250;28;20165;-76
2022/01/24 11:00:44;;;;;;;0.30;0.30;;;5.30;99.90;;;;;;5008151;28;20022;-78
2022/01/24 11:03:18;;;;;;;0.80;0.80;;;5.30;99.90;;;;;;5012665;28;20026;-76
2022/01/24 11:05:45;;;;;;;6.78;0.55;;;5.40;99.90;;;;;;5000290;28;20081;-76
2022/01/24 11:08:17;;;;;;;0.93;0.93;;;5.50;99.90;;;;;;5006288;28;20025;-84
2022/01/24 11:10:51;;;;;;;0.45;0.45;;;5.70;99.90;;;;;;5010416;28;20093;-81
2022/01/24 11:13:19;;;;;;;0.68;0.68;;;5.80;99.90;;;;;;5000288;28;20026;-81
2022/01/24 11:15:55;;;;;;;0.63;0.63;;;6.00;99.90;;;;;;5010642;28;20062;-82
2022/01/24 11:18:25;;;;;;;0.93;0.93;;;6.20;99.90;;;;;;4992328;28;20019;-88
2022/01/24 11:21:01;;;;;;;0.80;0.80;;;6.30;99.90;;;;;;5005946;28;20037;-87
2022/01/24 11:23:30;;;;;;;0.57;0.43;;;6.40;99.90;;;;;;5001081;28;20461;-81
2022/01/24 11:26:01;;;;;;;0.40;0.40;;;6.60;99.90;;;;;;5007894;28;20023;-87
2022/01/24 11:28:27;;;;;;;1.00;1.00;;;6.70;99.90;;;;;;5005333;28;20056;-88
2022/01/24 11:31:34;;;;;;;0.43;0.43;;;6.90;99.90;;;;;;5009600;28;20033;-88
2022/01/24 11:34:13;;;;;;;0.95;0.95;;;7.10;99.90;;;;;;4929130;29;20039;-88
2022/01/24 11:36:42;;;;;;;0.70;0.28;;;7.20;99.90;;;;;;4935464;29;20024;-81
2022/01/24 11:39:08;;;;;;;6.70;2.15;;;7.40;99.90;;;;;;4952389;29;20042;-84
2022/01/24 11:41:37;;;;;;;1.33;1.23;;;7.60;99.90;;;;;;4935790;29;20693;-84
2022/01/24 11:44:11;;;;;;;1.27;0.82;;;7.70;99.90;;;;;;4947387;28;20031;-84
2022/01/24 11:46:44;;;;;;;1.27;1.20;;;7.70;99.90;;;;;;4949374;29;20463;-80
2022/01/24 11:49:34;;;;;;;0.85;0.85;;;7.90;99.90;;;;;;4942184;28;20023;-83
2022/01/24 11:52:11;;;;;;;1.00;0.90;;;8.00;99.90;;;;;;4960820;28;20036;-81
2022/01/24 11:57:32;;;;;;;1.75;0.98;;;8.30;99.90;;;;;;4959464;28;20114;-80
2022/01/24 12:00:04;;;;;;;10.68;2.00;;;8.50;99.90;;;;;;4945761;28;20027;-83
2022/01/24 12:02:37;;;;;;;0.87;0.87;;;8.60;99.90;;;;;;4942899;28;20038;-80
2022/01/24 12:05:14;;;;;;;1.57;0.40;;;8.70;99.90;;;;;;4949479;28;20070;-81
2022/01/24 12:07:41;;;;;;;0.17;0.17;;;8.70;99.90;;;;;;4972065;28;20038;-82
2022/01/24 12:10:36;;;;;;;0.75;0.63;;;8.90;99.90;;;;;;5015368;28;20093;-85
2022/01/24 12:13:17;;;;;;;4.22;0.35;;;9.10;99.90;;;;;;5008165;28;20388;-85
2022/01/24 12:15:43;;;;;;;1.02;0.98;;;9.20;99.90;;;;;;5008286;28;20113;-81
2022/01/24 12:18:26;;;;;;;0.30;0.30;;;9.30;99.90;;;;;;5002153;28;20156;-83
2022/01/24 12:20:57;;;;;;;1.50;1.40;;;9.40;99.90;;;;;;5006324;28;20544;-81
2022/01/24 12:23:27;;;;;;;0.95;0.95;;;9.50;99.90;;;;;;5005995;28;20019;-81
2022/01/24 12:26:02;;;;;;;0.30;0.30;;;9.50;99.90;;;;;;5009929;28;20025;-82
2022/01/24 12:28:53;;;;;;;8.73;1.38;;;9.90;99.90;;;;;;5005343;28;20037;-82
2022/01/24 12:31:21;;;;;;;0.60;0.28;;;10.00;99.90;;;;;;5000770;28;20022;-83
2022/01/24 12:34:02;;;;;;;2.75;1.65;;;10.00;99.90;;;;;;5012170;28;20034;-79
2022/01/24 12:36:50;;;;;;;0.95;0.95;;;10.10;99.90;;;;;;5006251;28;20037;-82
2022/01/24 12:39:48;;;;;;;1.85;0.90;;;10.10;99.90;;;;;;5000277;28;20054;-80
2022/01/24 12:42:32;;;;;;;1.90;0.63;;;10.40;99.90;;;;;;5026554;28;20041;-83
2022/01/24 12:47:43;;;;;;;0.43;0.43;;;10.50;99.90;;;;;;5007439;28;20101;-83
2022/01/24 12:50:10;;;;;;;0.93;0.93;;;10.40;99.90;;;;;;5008299;28;20117;-83
2022/01/24 12:52:37;;;;;;;0.75;0.75;;;10.60;99.90;;;;;;5014616;28;20024;-82
2022/01/24 12:55:09;;;;;;;7.32;3.35;;;10.40;99.90;;;;;;5007549;28;20497;-84
2022/01/24 12:57:42;;;;;;;3.42;1.17;;;10.50;99.90;;;;;;5012388;28;20100;-82
2022/01/24 13:00:13;;;;;;;0.77;0.65;;;10.70;99.90;;;;;;5015057;28;20056;-82
2022/01/24 13:02:39;;;;;;;3.00;1.45;;;10.80;99.90;;;;;;5012115;28;20422;-80
2022/01/24 13:05:15;;;;;;;0.10;0.10;;;10.90;99.90;;;;;;5001946;28;20030;-78
2022/01/24 13:07:49;;;;;;;3.42;0.82;;;11.00;99.90;;;;;;5009705;28;20049;-78
2022/01/24 13:10:18;;;;;;;1.85;1.20;;;11.10;99.90;;;;;;5014153;28;20026;-84
2022/01/24 13:12:53;;;;;;;0.13;0.10;;;11.10;99.90;;;;;;5008248;28;20018;-79
2022/01/24 13:20:21;;;;;;;0.63;0.63;;;11.20;99.90;;;;;;4997666;28;20085;-78
2022/01/24 13:23:28;;;;;;;0.10;0.10;;;11.70;99.90;;;;;;5004192;28;20040;-79
2022/01/24 13:25:54;;;;;;;0.50;0.30;;;11.90;99.90;;;;;;5012143;28;20449;-79
2022/01/24 13:28:20;;;;;;;0.85;0.85;;;12.00;99.90;;;;;;5010205;28;20050;-78
2022/01/24 13:30:57;;;;;;;0.25;0.25;;;12.20;99.90;;;;;;5012280;28;20034;-79
2022/01/24 13:33:25;;;;;;;0.63;0.63;;;12.40;99.90;;;;;;5001582;28;20093;-79
2022/01/24 13:35:53;;;;;;;0.55;0.55;;;12.50;99.90;;;;;;5009840;28;20022;-83
2022/01/24 13:38:29;;;;;;;1.10;0.30;;;12.60;99.90;;;;;;5010143;28;20026;-78
2022/01/24 13:44:04;;;;;;;1.13;1.05;;;12.70;99.90;;;;;;5004071;28;20061;-80
2022/01/24 13:46:33;;;;;;;6.47;1.92;;;12.60;99.90;;;;;;5006357;28;20041;-79
2022/01/24 13:49:04;;;;;;;0.38;0.22;;;12.30;99.90;;;;;;5005811;28;20022;-85
2022/01/24 13:51:37;;;;;;;0.73;0.73;;;12.30;99.90;;;;;;5008589;28;20022;-79
2022/01/24 13:54:06;;;;;;;3.67;1.13;;;12.50;99.90;;;;;;5010355;28;20033;-79
2022/01/24 13:56:48;;;;;;;1.30;0.60;;;12.60;99.90;;;;;;5011704;28;20030;-84
2022/01/24 13:59:24;;;;;;;0.45;0.45;;;12.60;99.90;;;;;;4966921;28;20129;-83
2022/01/24 14:02:09;;;;;;;0.65;0.65;;;12.60;99.90;;;;;;4967856;28;20079;-81
2022/01/24 14:04:46;;;;;;;0.60;0.45;;;12.80;99.90;;;;;;4974212;28;20037;-84
2022/01/24 14:07:13;;;;;;;0.57;0.20;;;13.00;99.90;;;;;;4965488;28;20019;-79
2022/01/24 14:09:41;;;;;;;2.55;1.25;;;13.10;99.90;;;;;;4969312;28;20027;-84
2022/01/24 14:12:11;;;;;;;0.98;0.93;;;13.10;99.90;;;;;;4966402;28;20045;-83
2022/01/24 14:14:48;;;;;;;0.10;0.10;;;13.30;99.90;;;;;;4967425;28;20039;-77
2022/01/24 14:20:08;;;;;;;0.70;0.32;;;13.20;99.90;;;;;;4954118;28;20039;-79
2022/01/24 14:22:41;;;;;;;0.17;0.17;;;13.20;99.90;;;;;;4970731;28;20481;-78
2022/01/24 14:25:16;;;;;;;3.92;0.45;;;13.30;99.90;;;;;;4959947;28;20063;-80
2022/01/24 14:27:46;;;;;;;0.55;0.38;;;13.20;99.90;;;;;;4961014;28;20026;-78
2022/01/24 14:30:12;;;;;;;3.28;0.40;;;13.40;99.90;;;;;;4971197;28;20022;-82
2022/01/24 14:32:45;;;;;;;11.18;1.98;;;13.30;99.90;;;;;;4965292;28;20114;-84
2022/01/24 14:35:12;;;;;;;0.20;0.20;;;13.20;99.90;;;;;;4966770;28;20375;-83
2022/01/24 14:37:51;;;;;;;0.47;0.35;;;13.20;99.90;;;;;;4961255;28;20019;-79
2022/01/24 14:40:48;;;;;;;2.30;0.38;;;13.20;99.90;;;;;;4966378;28;20078;-78
2022/01/24 14:46:10;;;;;;;0.85;0.43;;;13.40;99.90;;;;;;4967937;28;20034;-85
2022/01/24 14:48:45;;;;;;;3.75;0.52;;;13.50;99.90;;;;;;4969896;28;20049;-83
2022/01/24 14:51:11;;;;;;;0.93;0.60;;;13.50;99.90;;;;;;4966506;28;20037;-85
2022/01/24 14:53:37;;;;;;;3.63;0.52;;;13.50;99.90;;;;;;4959848;28;20031;-86
2022/01/24 14:56:03;;;;;;;1.23;0.35;;;13.40;99.90;;;;;;4964390;28;20029;-80
2022/01/24 14:58:29;;;;;;;10.45;2.90;;;13.40;99.90;;;;;;4996271;28;20061;-84
2022/01/24 15:00:54;;;;;;;0.75;0.60;;;13.40;99.90;;;;;;5000946;28;20492;-85
2022/01/24 15:03:20;;;;;;;3.72;1.38;;;13.60;99.90;;;;;;4999096;28;20022;-84
2022/01/24 15:05:46;;;;;;;4.43;0.80;;;13.60;99.90;;;;;;5011621;28;20029;-85
2022/01/24 15:08:12;;;;;;;1.65;0.55;;;13.70;99.90;;;;;;5000620;28;20171;-86
2022/01/24 15:10:38;;;;;;;4.57;1.27;;;13.90;99.90;;;;;;5011781;28;20030;-81
2022/01/24 15:13:06;;;;;;;3.63;1.25;;;13.90;99.90;;;;;;5003122;28;20033;-81
2022/01/24 15:15:37;;;;;;;0.10;0.10;;;13.80;99.90;;;;;;4990011;28;20030;-86